Time;durP1;ratioP1;P1;durP2;ratioP2;P2;SDS_P1;SDS_P2;PMS_P1;PMS_P2;Temp;Humidity;BMP_temperature;BMP_pressure;BME280_temperature;BME280_humidity;BME280_pressure;Samples;Min_cycle;Max_cycle;Signal;HPM_P1;HPM_P2
2021/06/15 00:00:20;;;;;;;5.07;4.28;;;22.60;58.00;;;;;;5092342;28;20266;-90
2021/06/15 00:02:46;;;;;;;4.38;3.97;;;22.60;58.10;;;;;;5094853;28;20346;-90
2021/06/15 00:05:13;;;;;;;5.32;4.70;;;22.50;58.50;;;;;;5095160;28;20211;-89
2021/06/15 00:07:39;;;;;;;5.10;4.60;;;22.50;58.50;;;;;;5096186;28;20240;-89
2021/06/15 00:10:17;;;;;;;5.25;4.00;;;22.40;58.70;;;;;;5096968;28;20859;-90
2021/06/15 00:12:43;;;;;;;4.85;4.35;;;22.40;58.60;;;;;;5096230;28;20558;-90
2021/06/15 00:15:10;;;;;;;4.82;4.40;;;22.40;58.40;;;;;;5094263;28;20199;-90
2021/06/15 00:17:36;;;;;;;4.80;4.38;;;22.40;58.50;;;;;;5095380;28;20179;-90
2021/06/15 00:20:03;;;;;;;4.90;4.40;;;22.40;58.60;;;;;;5094087;28;20188;-89
2021/06/15 00:22:29;;;;;;;8.48;4.97;;;22.30;59.10;;;;;;5095540;28;20274;-89
2021/06/15 00:24:55;;;;;;;5.50;4.68;;;21.80;61.00;;;;;;5096146;28;20312;-89
2021/06/15 00:27:20;;;;;;;4.97;4.57;;;21.60;61.20;;;;;;5094061;28;20277;-89
2021/06/15 00:29:46;;;;;;;5.47;4.97;;;21.40;62.00;;;;;;5093639;28;20268;-89
2021/06/15 00:32:11;;;;;;;7.65;4.90;;;21.00;63.90;;;;;;5094785;28;20705;-90
2021/06/15 00:34:37;;;;;;;7.18;4.70;;;21.00;64.60;;;;;;5093584;28;20206;-89
2021/06/15 00:37:03;;;;;;;5.15;4.75;;;21.20;63.20;;;;;;5093822;28;20183;-90
2021/06/15 00:39:28;;;;;;;5.55;5.05;;;21.30;62.90;;;;;;5093472;28;20267;-89
2021/06/15 00:41:54;;;;;;;4.72;4.43;;;21.40;62.40;;;;;;5094624;28;20192;-88
2021/06/15 00:44:20;;;;;;;4.95;4.55;;;21.60;61.80;;;;;;5095033;28;20648;-89
2021/06/15 00:46:46;;;;;;;6.22;4.68;;;21.80;61.20;;;;;;5095791;28;20245;-89
2021/06/15 00:49:14;;;;;;;7.10;4.72;;;21.80;60.90;;;;;;5095657;28;20195;-88
2021/06/15 00:51:40;;;;;;;6.15;4.68;;;21.60;61.40;;;;;;5094160;28;20203;-89
2021/06/15 00:54:07;;;;;;;5.70;4.38;;;21.40;62.00;;;;;;5095058;28;20177;-89
2021/06/15 00:56:32;;;;;;;4.85;4.40;;;21.30;61.60;;;;;;5093121;28;20715;-89
2021/06/15 00:58:58;;;;;;;5.32;4.82;;;21.10;62.90;;;;;;5094683;28;20179;-89
2021/06/15 01:01:24;;;;;;;5.05;4.30;;;20.80;64.00;;;;;;5092973;28;20802;-89
2021/06/15 01:03:50;;;;;;;5.15;4.65;;;20.60;65.10;;;;;;5093710;28;20215;-89
2021/06/15 01:06:21;;;;;;;6.85;4.50;;;20.70;65.10;;;;;;5094485;28;20189;-89
2021/06/15 01:08:47;;;;;;;5.60;5.07;;;20.90;64.90;;;;;;5093477;28;20168;-89
2021/06/15 01:11:32;;;;;;;5.45;4.95;;;20.80;64.50;;;;;;5093538;28;20172;-90
2021/06/15 01:14:25;;;;;;;4.85;4.45;;;20.60;65.80;;;;;;5094098;28;20160;-89
2021/06/15 01:16:57;;;;;;;4.57;4.18;;;20.60;65.20;;;;;;5094048;28;20155;-88
2021/06/15 01:19:50;;;;;;;7.63;5.05;;;20.70;64.30;;;;;;5094686;28;20229;-88
2021/06/15 01:22:43;;;;;;;5.30;4.80;;;20.80;63.90;;;;;;5093517;28;20211;-89
2021/06/15 01:25:27;;;;;;;4.90;4.50;;;20.80;63.90;;;;;;5093382;28;20203;-89
2021/06/15 01:27:58;;;;;;;5.63;4.78;;;20.80;63.70;;;;;;5093638;28;20226;-89
2021/06/15 01:30:31;;;;;;;8.15;4.68;;;20.70;64.30;;;;;;5092449;28;20190;-89
2021/06/15 01:33:03;;;;;;;4.68;4.15;;;20.70;63.60;;;;;;5093672;28;20191;-90
2021/06/15 01:35:30;;;;;;;4.45;4.13;;;20.90;63.00;;;;;;5093316;28;20198;-90
2021/06/15 01:38:05;;;;;;;4.53;4.10;;;21.00;62.50;;;;;;5093677;28;20264;-89
2021/06/15 01:41:02;;;;;;;5.20;4.70;;;21.00;62.50;;;;;;5093958;28;20158;-89
2021/06/15 01:43:31;;;;;;;8.25;5.13;;;21.10;62.10;;;;;;5099426;28;20249;-90
2021/06/15 01:45:58;;;;;;;5.55;5.00;;;20.90;62.80;;;;;;5100241;28;20554;-90
2021/06/15 01:48:31;;;;;;;5.10;4.65;;;20.90;63.00;;;;;;5100407;28;20186;-89
2021/06/15 01:50:57;;;;;;;5.88;5.32;;;20.80;62.80;;;;;;5099071;28;20172;-89
2021/06/15 01:53:24;;;;;;;5.35;4.90;;;20.60;64.10;;;;;;5082265;28;20226;-90
2021/06/15 01:55:52;;;;;;;4.85;4.25;;;20.60;64.20;;;;;;5101184;28;20566;-90
2021/06/15 01:58:22;;;;;;;5.03;4.72;;;20.70;63.60;;;;;;5100784;28;20181;-90
2021/06/15 02:00:50;;;;;;;4.95;4.50;;;20.60;63.80;;;;;;5101451;28;20183;-89
2021/06/15 02:03:15;;;;;;;4.82;4.43;;;20.60;63.90;;;;;;5101638;28;20175;-89
2021/06/15 02:05:51;;;;;;;7.85;4.75;;;20.60;63.50;;;;;;5100699;28;20248;-90
2021/06/15 02:08:32;;;;;;;5.00;4.60;;;20.70;63.50;;;;;;5100806;28;20267;-89
2021/06/15 02:10:59;;;;;;;4.68;4.38;;;20.60;63.20;;;;;;5100254;28;20193;-89
2021/06/15 02:13:32;;;;;;;5.72;4.53;;;20.60;63.50;;;;;;5099224;28;20215;-90
2021/06/15 02:15:59;;;;;;;5.20;4.70;;;20.70;63.10;;;;;;5100275;28;20203;-89
2021/06/15 02:18:29;;;;;;;5.03;4.63;;;20.70;63.00;;;;;;5100415;28;20173;-89
2021/06/15 02:20:56;;;;;;;4.75;4.20;;;20.60;63.00;;;;;;5100682;28;20181;-89
2021/06/15 02:23:24;;;;;;;5.03;4.63;;;20.60;62.80;;;;;;5100415;28;20265;-90
2021/06/15 02:25:57;;;;;;;5.07;4.55;;;20.70;62.70;;;;;;5102296;28;20236;-90
2021/06/15 02:28:23;;;;;;;4.97;4.50;;;20.60;63.20;;;;;;5101215;28;20661;-90
2021/06/15 02:30:49;;;;;;;5.85;5.30;;;20.50;63.90;;;;;;5100502;28;20246;-89
2021/06/15 02:33:30;;;;;;;5.30;4.60;;;20.60;64.20;;;;;;5100684;28;20637;-90
2021/06/15 02:36:04;;;;;;;6.07;5.50;;;20.60;63.80;;;;;;5100616;28;20196;-89
2021/06/15 02:38:33;;;;;;;5.05;4.57;;;20.60;63.50;;;;;;5100615;28;20219;-89
2021/06/15 02:41:03;;;;;;;5.95;4.72;;;20.50;63.90;;;;;;5098963;28;20190;-90
2021/06/15 02:43:30;;;;;;;5.95;4.88;;;20.40;63.60;;;;;;5100138;28;20187;-89
2021/06/15 02:45:57;;;;;;;5.45;5.05;;;19.90;65.70;;;;;;5110613;28;20178;-89
2021/06/15 02:52:06;;;;;;;5.90;4.75;;;19.90;66.30;;;;;;5098683;28;20222;-89
2021/06/15 02:54:59;;;;;;;6.20;4.90;;;19.90;66.20;;;;;;5100722;28;20201;-89
2021/06/15 02:57:28;;;;;;;4.95;4.55;;;19.90;66.20;;;;;;5101580;28;20218;-90
2021/06/15 02:59:55;;;;;;;6.80;5.45;;;20.00;65.70;;;;;;5091640;28;20678;-90
2021/06/15 03:02:22;;;;;;;5.32;4.93;;;20.00;65.30;;;;;;5091860;28;20183;-89
2021/06/15 03:04:48;;;;;;;5.47;4.75;;;20.00;65.20;;;;;;5091768;28;20205;-89
2021/06/15 03:07:15;;;;;;;5.53;4.78;;;20.00;64.80;;;;;;5091424;28;20183;-89
2021/06/15 03:09:41;;;;;;;5.03;4.63;;;19.90;65.30;;;;;;5091716;28;20178;-88
2021/06/15 03:12:19;;;;;;;5.53;5.03;;;19.90;64.90;;;;;;5090805;28;20281;-89
2021/06/15 03:14:52;;;;;;;5.30;4.72;;;19.90;65.50;;;;;;5089727;28;20844;-89
2021/06/15 03:17:20;;;;;;;5.97;5.28;;;19.90;64.90;;;;;;5092170;28;20187;-90
2021/06/15 03:19:59;;;;;;;5.57;5.03;;;19.70;66.00;;;;;;5091001;28;20674;-90
2021/06/15 03:22:45;;;;;;;7.50;5.28;;;19.90;65.90;;;;;;5089805;28;20178;-89
2021/06/15 03:25:11;;;;;;;6.28;5.32;;;19.80;65.70;;;;;;5089935;28;20221;-88
2021/06/15 03:27:41;;;;;;;5.72;5.03;;;19.70;66.20;;;;;;5089763;28;20666;-89
2021/06/15 03:30:14;;;;;;;8.48;5.68;;;19.80;65.80;;;;;;5090072;28;20175;-90
2021/06/15 03:33:08;;;;;;;7.45;5.43;;;19.40;67.70;;;;;;5090993;28;20213;-90
2021/06/15 03:35:39;;;;;;;5.75;5.35;;;19.00;69.90;;;;;;5088740;28;20214;-89
2021/06/15 03:38:06;;;;;;;6.78;5.30;;;19.00;69.00;;;;;;5095521;28;20169;-89
2021/06/15 03:40:40;;;;;;;9.27;5.60;;;19.20;67.60;;;;;;5093953;28;20167;-90
2021/06/15 03:43:07;;;;;;;6.55;5.35;;;19.30;67.90;;;;;;5097263;28;20174;-89
2021/06/15 03:45:38;;;;;;;6.13;5.50;;;19.50;67.20;;;;;;5095257;28;20222;-89
2021/06/15 03:48:05;;;;;;;7.07;4.85;;;19.50;66.80;;;;;;5093836;28;20197;-90
2021/06/15 03:50:34;;;;;;;6.18;5.45;;;19.40;66.90;;;;;;5093431;28;20191;-89
2021/06/15 03:53:02;;;;;;;7.65;5.50;;;19.50;66.40;;;;;;5094860;28;20240;-89
2021/06/15 03:55:30;;;;;;;5.50;4.80;;;19.60;66.30;;;;;;5094751;28;20683;-90
2021/06/15 03:58:01;;;;;;;5.68;4.80;;;19.60;65.70;;;;;;5093665;28;20183;-89
2021/06/15 04:00:28;;;;;;;6.20;5.05;;;19.50;66.00;;;;;;5094631;28;20163;-89
2021/06/15 04:02:59;;;;;;;7.18;5.53;;;19.60;66.30;;;;;;5093696;28;20328;-90
2021/06/15 04:05:28;;;;;;;5.25;4.85;;;19.50;65.90;;;;;;5096719;28;20346;-89
2021/06/15 04:07:56;;;;;;;5.82;5.20;;;19.50;66.40;;;;;;5094550;28;20179;-88
2021/06/15 04:10:24;;;;;;;5.50;5.00;;;19.40;66.50;;;;;;5093918;28;20191;-90
2021/06/15 04:12:51;;;;;;;5.20;4.85;;;19.60;67.30;;;;;;5095463;28;20198;-89
2021/06/15 04:15:18;;;;;;;4.85;4.35;;;19.50;66.60;;;;;;5094784;28;20679;-92
2021/06/15 04:17:48;;;;;;;5.20;4.63;;;19.40;66.80;;;;;;5094688;28;20273;-90
2021/06/15 04:20:19;;;;;;;5.65;5.25;;;19.40;67.30;;;;;;5092486;28;20199;-90
2021/06/15 04:22:47;;;;;;;8.32;5.57;;;19.20;68.10;;;;;;5093698;28;20197;-89
2021/06/15 04:25:18;;;;;;;5.38;4.72;;;19.10;68.80;;;;;;5092224;28;20301;-89
2021/06/15 04:27:46;;;;;;;9.68;5.00;;;19.30;68.10;;;;;;5094130;28;20183;-90
2021/06/15 04:30:14;;;;;;;7.45;5.32;;;19.40;67.60;;;;;;5093473;28;20182;-89
2021/06/15 04:32:51;;;;;;;5.50;5.10;;;19.50;67.60;;;;;;5111343;28;20218;-89
2021/06/15 04:35:41;;;;;;;5.43;4.93;;;19.50;67.10;;;;;;5114559;28;20562;-89
2021/06/15 04:38:23;;;;;;;5.97;5.38;;;19.50;67.40;;;;;;5105576;28;20216;-89
2021/06/15 04:41:00;;;;;;;6.18;5.57;;;19.40;67.60;;;;;;5095507;28;20186;-90
2021/06/15 04:43:38;;;;;;;7.15;4.90;;;19.30;68.20;;;;;;5094853;28;20234;-87
2021/06/15 04:46:19;;;;;;;5.63;5.07;;;19.40;68.30;;;;;;5092770;28;20224;-87
2021/06/15 04:48:49;;;;;;;5.80;5.30;;;19.60;67.80;;;;;;5093662;28;20624;-87
2021/06/15 04:51:19;;;;;;;6.03;5.53;;;19.70;67.30;;;;;;5092980;28;20172;-88
2021/06/15 04:53:45;;;;;;;6.30;5.78;;;19.80;67.20;;;;;;5093834;28;20205;-89
2021/06/15 04:56:15;;;;;;;11.20;5.65;;;19.90;67.10;;;;;;5093411;28;20195;-88
2021/06/15 04:58:42;;;;;;;6.13;5.32;;;20.00;66.90;;;;;;5091585;28;20175;-88
2021/06/15 05:01:10;;;;;;;6.28;5.75;;;20.10;66.70;;;;;;5091381;28;20182;-88
2021/06/15 05:03:37;;;;;;;7.25;5.93;;;20.20;66.70;;;;;;5093327;28;20180;-88
2021/06/15 05:06:05;;;;;;;9.52;6.22;;;20.30;66.40;;;;;;5093435;28;20295;-88
2021/06/15 05:08:35;;;;;;;6.50;5.90;;;20.30;66.40;;;;;;5093276;28;20176;-89
2021/06/15 05:11:02;;;;;;;7.03;6.43;;;20.30;66.60;;;;;;5093215;28;20187;-90
2021/06/15 05:13:30;;;;;;;7.45;5.70;;;20.20;67.60;;;;;;5092526;28;20439;-89
2021/06/15 05:15:58;;;;;;;6.18;5.65;;;20.10;68.90;;;;;;5092449;28;20195;-89
2021/06/15 05:18:24;;;;;;;6.45;5.72;;;20.00;70.20;;;;;;5091781;28;20178;-89
2021/06/15 05:20:51;;;;;;;7.00;6.40;;;20.00;69.50;;;;;;5092946;28;20168;-89
2021/06/15 05:23:25;;;;;;;6.20;5.63;;;20.10;67.80;;;;;;5093169;28;20183;-89
2021/06/15 05:25:51;;;;;;;7.45;6.85;;;20.30;66.20;;;;;;5093761;28;20190;-89
2021/06/15 05:28:17;;;;;;;7.47;6.22;;;20.30;65.70;;;;;;5093859;28;20194;-89
2021/06/15 05:30:44;;;;;;;7.57;5.85;;;20.30;66.60;;;;;;5093376;28;20276;-89
2021/06/15 05:33:11;;;;;;;6.68;6.13;;;20.40;65.60;;;;;;5091942;28;20218;-89
2021/06/15 05:35:37;;;;;;;7.65;6.95;;;20.60;65.00;;;;;;5093339;28;20201;-89
2021/06/15 05:38:03;;;;;;;7.50;6.97;;;20.60;65.30;;;;;;5092634;28;20220;-89
2021/06/15 05:40:29;;;;;;;7.72;6.07;;;20.60;65.70;;;;;;5092753;28;20640;-89
2021/06/15 05:42:55;;;;;;;7.85;7.03;;;20.60;66.70;;;;;;5094175;28;20188;-89
2021/06/15 05:45:20;;;;;;;10.15;7.30;;;20.60;65.70;;;;;;5085911;28;20246;-89
2021/06/15 05:47:46;;;;;;;8.15;7.00;;;20.70;66.60;;;;;;5112557;28;20707;-89
2021/06/15 05:50:15;;;;;;;7.20;6.65;;;20.70;67.20;;;;;;5102191;28;20193;-90
2021/06/15 05:52:43;;;;;;;8.85;7.10;;;20.80;66.90;;;;;;5105236;28;20216;-90
2021/06/15 05:55:11;;;;;;;7.88;7.20;;;20.80;66.80;;;;;;5105452;28;20213;-90
2021/06/15 05:57:37;;;;;;;7.90;7.20;;;20.80;67.60;;;;;;5110091;28;20173;-87
2021/06/15 06:00:06;;;;;;;7.50;6.90;;;20.80;66.20;;;;;;5108095;28;20680;-87
2021/06/15 06:02:31;;;;;;;6.93;6.40;;;20.90;66.10;;;;;;5108845;28;20181;-87
2021/06/15 06:10:10;;;;;;;7.18;6.55;;;21.00;65.40;;;;;;5098740;28;20618;-91
2021/06/15 06:12:35;;;;;;;10.70;8.18;;;21.10;65.90;;;;;;5107093;28;20230;-90
2021/06/15 06:15:03;;;;;;;7.53;6.82;;;21.10;66.70;;;;;;5090399;28;20212;-91
2021/06/15 06:17:29;;;;;;;7.95;6.25;;;21.20;65.30;;;;;;5117252;28;20201;-90
2021/06/15 06:19:54;;;;;;;7.20;5.95;;;21.20;63.70;;;;;;5115936;28;20700;-88
2021/06/15 06:22:22;;;;;;;7.22;6.60;;;21.20;62.60;;;;;;5103122;28;20193;-89
2021/06/15 06:24:49;;;;;;;8.35;6.32;;;21.20;64.40;;;;;;5108434;28;20203;-87
2021/06/15 06:27:14;;;;;;;6.50;5.88;;;21.30;65.00;;;;;;5108899;28;20197;-88
2021/06/15 06:29:40;;;;;;;8.00;6.30;;;21.40;64.80;;;;;;5114087;28;20190;-89
2021/06/15 06:32:06;;;;;;;6.85;6.25;;;21.50;64.30;;;;;;5113340;28;20243;-88
2021/06/15 06:34:32;;;;;;;6.40;5.90;;;21.50;63.80;;;;;;5118638;28;20183;-88
2021/06/15 06:36:58;;;;;;;7.00;6.22;;;21.60;63.50;;;;;;5117140;28;20182;-87
2021/06/15 06:39:24;;;;;;;7.45;6.13;;;21.60;64.20;;;;;;5115399;28;20178;-88
2021/06/15 06:41:50;;;;;;;9.95;6.28;;;21.70;63.20;;;;;;5110512;28;20208;-89
2021/06/15 06:44:16;;;;;;;6.97;6.35;;;21.80;64.10;;;;;;5114349;28;20185;-89
2021/06/15 06:46:42;;;;;;;9.77;6.50;;;21.90;63.70;;;;;;5116707;28;20182;-90
2021/06/15 06:49:08;;;;;;;12.40;7.10;;;21.80;62.10;;;;;;5117452;28;20197;-88
2021/06/15 06:51:34;;;;;;;6.50;5.90;;;21.70;62.30;;;;;;5114450;28;20324;-89
2021/06/15 06:54:00;;;;;;;7.22;6.38;;;21.80;61.60;;;;;;5114321;28;20178;-89
2021/06/15 06:56:27;;;;;;;8.35;6.43;;;21.80;61.20;;;;;;5114400;28;20262;-91
2021/06/15 06:58:54;;;;;;;11.13;6.60;;;21.90;61.20;;;;;;5105171;28;20258;-90
2021/06/15 07:01:21;;;;;;;12.60;6.47;;;21.90;61.30;;;;;;5115030;28;20175;-90
2021/06/15 07:03:48;;;;;;;8.00;7.28;;;21.90;61.10;;;;;;5114366;28;20182;-87
2021/06/15 07:06:15;;;;;;;7.20;6.28;;;22.10;59.70;;;;;;5097691;28;20206;-87
2021/06/15 07:08:41;;;;;;;9.43;6.53;;;22.10;61.00;;;;;;5098901;28;20179;-86
2021/06/15 07:11:07;;;;;;;7.40;6.70;;;22.20;59.50;;;;;;5112666;28;20299;-87
2021/06/15 07:13:32;;;;;;;8.35;7.00;;;22.30;59.10;;;;;;5118074;28;20827;-87
2021/06/15 07:15:58;;;;;;;7.35;6.57;;;22.40;59.20;;;;;;5111648;28;20220;-86
2021/06/15 07:18:24;;;;;;;8.02;6.68;;;22.40;58.60;;;;;;5116700;28;20203;-87
2021/06/15 07:20:50;;;;;;;7.97;7.28;;;22.40;58.90;;;;;;5107169;28;20189;-87
2021/06/15 07:23:16;;;;;;;7.05;6.32;;;22.50;58.30;;;;;;5114930;28;20212;-86
2021/06/15 07:25:42;;;;;;;7.07;6.40;;;22.50;57.90;;;;;;5117021;28;20292;-87
2021/06/15 07:28:08;;;;;;;7.93;7.13;;;22.70;59.20;;;;;;5118289;28;20182;-87
2021/06/15 07:30:33;;;;;;;7.30;6.45;;;22.80;60.00;;;;;;5112707;28;20191;-87
2021/06/15 07:32:59;;;;;;;8.90;6.35;;;22.90;60.90;;;;;;5114188;28;20334;-87
2021/06/15 07:35:26;;;;;;;9.85;7.18;;;22.90;61.00;;;;;;5112973;28;20211;-87
2021/06/15 07:37:52;;;;;;;8.05;7.22;;;23.00;60.60;;;;;;5105685;28;20202;-87
2021/06/15 07:40:24;;;;;;;9.85;7.00;;;23.10;60.80;;;;;;5117427;28;20182;-86
2021/06/15 07:42:55;;;;;;;7.78;6.15;;;23.10;59.40;;;;;;5111354;28;20175;-86
2021/06/15 07:45:22;;;;;;;8.98;6.10;;;23.30;58.60;;;;;;5107939;28;20220;-87
2021/06/15 07:47:48;;;;;;;9.85;6.82;;;23.40;58.10;;;;;;5118198;28;20182;-87
2021/06/15 07:50:15;;;;;;;8.63;6.90;;;23.60;59.50;;;;;;5117141;28;20262;-86
2021/06/15 07:52:42;;;;;;;10.65;6.75;;;23.80;57.60;;;;;;5110208;28;20806;-88
2021/06/15 07:55:08;;;;;;;11.82;6.43;;;23.90;58.30;;;;;;5116768;28;20262;-87
2021/06/15 07:57:34;;;;;;;8.45;6.63;;;23.90;56.90;;;;;;5118551;28;20186;-86
2021/06/15 07:59:59;;;;;;;6.60;6.00;;;23.80;57.20;;;;;;5108678;28;20194;-85
2021/06/15 08:02:25;;;;;;;8.75;6.53;;;24.00;57.30;;;;;;5111849;28;20619;-88
2021/06/15 08:04:51;;;;;;;9.10;6.35;;;24.00;57.00;;;;;;5115182;28;20214;-87
2021/06/15 08:07:16;;;;;;;8.75;6.70;;;24.00;57.70;;;;;;5114182;28;20182;-87
2021/06/15 08:09:42;;;;;;;7.55;6.60;;;24.30;55.70;;;;;;5108728;28;20182;-87
2021/06/15 08:12:08;;;;;;;9.38;6.70;;;24.40;55.90;;;;;;5107901;28;20305;-87
2021/06/15 08:14:34;;;;;;;15.73;7.30;;;24.60;54.80;;;;;;5111030;28;20207;-87
2021/06/15 08:17:00;;;;;;;9.82;6.72;;;24.70;53.00;;;;;;5086843;28;20657;-85
2021/06/15 08:19:26;;;;;;;10.35;6.30;;;24.80;53.60;;;;;;5107722;28;20194;-85
2021/06/15 08:21:52;;;;;;;7.97;6.78;;;24.80;52.80;;;;;;5104827;28;20667;-84
2021/06/15 08:24:17;;;;;;;12.43;7.07;;;24.90;54.20;;;;;;5104128;28;20203;-86
2021/06/15 08:26:44;;;;;;;12.13;6.78;;;25.00;53.30;;;;;;5104608;28;20284;-85
2021/06/15 08:29:13;;;;;;;11.77;6.78;;;25.10;54.40;;;;;;5118882;28;20713;-86
2021/06/15 08:31:39;;;;;;;9.95;6.22;;;25.10;52.40;;;;;;5107321;28;20198;-85
2021/06/15 08:34:05;;;;;;;7.72;5.78;;;25.10;51.90;;;;;;5098519;28;20711;-88
2021/06/15 08:36:30;;;;;;;6.60;6.00;;;25.30;51.40;;;;;;5105570;28;20302;-86
2021/06/15 08:38:56;;;;;;;9.10;6.30;;;25.40;51.40;;;;;;5109831;28;20194;-87
2021/06/15 08:41:22;;;;;;;6.80;6.10;;;25.60;51.80;;;;;;5108902;28;20242;-87
2021/06/15 08:43:48;;;;;;;6.82;5.90;;;25.60;50.30;;;;;;5109372;28;20186;-88
2021/06/15 08:46:15;;;;;;;6.72;6.10;;;25.80;49.70;;;;;;5113842;28;20219;-87
2021/06/15 08:48:41;;;;;;;6.53;5.47;;;26.00;48.80;;;;;;5117897;28;20299;-88
2021/06/15 08:51:07;;;;;;;11.88;6.07;;;26.20;50.20;;;;;;5102194;28;20194;-87
2021/06/15 08:53:35;;;;;;;7.13;6.07;;;26.30;47.80;;;;;;5102476;28;20266;-87
2021/06/15 08:56:22;;;;;;;9.40;6.28;;;26.30;48.80;;;;;;5107295;28;20248;-88
2021/06/15 08:59:20;;;;;;;8.85;6.30;;;26.30;48.60;;;;;;5108018;28;20179;-87
2021/06/15 09:02:06;;;;;;;6.63;6.03;;;26.30;48.00;;;;;;5102059;28;20190;-88
2021/06/15 09:04:33;;;;;;;8.30;5.82;;;26.30;48.60;;;;;;5100058;28;20218;-87
2021/06/15 09:06:59;;;;;;;7.85;5.85;;;26.50;48.10;;;;;;5108798;28;20281;-87
2021/06/15 09:09:46;;;;;;;9.23;6.53;;;26.40;48.00;;;;;;5107484;28;20190;-87
2021/06/15 09:12:14;;;;;;;7.78;6.35;;;26.40;48.00;;;;;;5110041;28;20216;-88
2021/06/15 09:14:54;;;;;;;9.63;5.97;;;26.50;47.20;;;;;;5111964;28;20206;-88
2021/06/15 09:17:27;;;;;;;6.95;6.25;;;26.60;48.00;;;;;;5112823;28;20262;-87
2021/06/15 09:19:54;;;;;;;5.65;5.20;;;26.80;46.60;;;;;;5101418;28;20175;-88
2021/06/15 09:22:25;;;;;;;8.60;6.10;;;27.10;47.10;;;;;;5104534;28;20197;-88
2021/06/15 09:24:52;;;;;;;6.68;6.07;;;27.40;47.30;;;;;;5101797;28;20251;-87
2021/06/15 09:27:20;;;;;;;8.65;6.07;;;27.50;46.50;;;;;;5098586;28;20190;-87
2021/06/15 09:29:54;;;;;;;6.40;5.53;;;27.50;45.70;;;;;;5103028;28;20232;-87
2021/06/15 09:32:37;;;;;;;6.43;5.80;;;27.40;46.50;;;;;;5101900;28;20206;-87
2021/06/15 09:35:06;;;;;;;7.18;6.10;;;27.40;45.90;;;;;;5107634;28;20206;-88
2021/06/15 09:37:39;;;;;;;10.77;6.45;;;27.50;45.10;;;;;;5111341;28;20273;-88
2021/06/15 09:40:12;;;;;;;7.22;6.40;;;27.50;46.70;;;;;;5107479;28;20622;-89
2021/06/15 09:42:56;;;;;;;7.28;6.32;;;27.70;47.10;;;;;;5107876;28;20266;-87
2021/06/15 09:45:33;;;;;;;7.35;6.47;;;27.90;46.40;;;;;;5092710;28;20504;-87
2021/06/15 09:48:25;;;;;;;7.30;6.55;;;28.10;45.90;;;;;;5099696;28;20272;-87
2021/06/15 09:50:54;;;;;;;10.80;6.18;;;28.20;45.90;;;;;;5103396;28;20178;-86
2021/06/15 09:53:37;;;;;;;8.13;6.07;;;28.30;45.30;;;;;;5113159;28;20222;-86
2021/06/15 09:56:06;;;;;;;13.52;7.63;;;28.40;45.40;;;;;;5110443;27;20194;-87
2021/06/15 09:58:46;;;;;;;8.10;6.57;;;28.20;45.80;;;;;;5115561;28;20622;-87
2021/06/15 10:01:32;;;;;;;9.02;6.47;;;28.30;45.70;;;;;;5108747;28;20193;-89
2021/06/15 10:04:14;;;;;;;8.35;6.35;;;28.40;46.10;;;;;;5111184;28;20186;-87
2021/06/15 10:06:51;;;;;;;9.10;5.75;;;28.60;46.50;;;;;;5100631;28;20210;-88
2021/06/15 10:09:30;;;;;;;6.60;6.00;;;28.80;45.00;;;;;;5105433;28;20174;-88
2021/06/15 10:11:59;;;;;;;7.88;6.50;;;28.80;44.30;;;;;;5115958;28;20240;-86
2021/06/15 10:14:26;;;;;;;6.40;5.80;;;28.90;45.00;;;;;;5118972;28;20272;-88
2021/06/15 10:16:54;;;;;;;7.53;5.97;;;29.20;45.40;;;;;;5123510;28;20242;-88
2021/06/15 10:19:21;;;;;;;10.00;6.50;;;29.30;44.30;;;;;;5107593;28;20193;-88
2021/06/15 10:21:47;;;;;;;7.97;6.53;;;29.60;43.30;;;;;;5095097;28;20311;-88
2021/06/15 10:24:14;;;;;;;9.60;6.03;;;29.70;41.80;;;;;;5109912;28;20197;-88
2021/06/15 10:26:41;;;;;;;8.38;6.47;;;29.90;43.10;;;;;;5107643;28;20562;-89
2021/06/15 10:29:12;;;;;;;7.40;5.97;;;30.00;41.40;;;;;;5109191;28;20198;-88
2021/06/15 10:31:40;;;;;;;6.55;5.40;;;30.00;42.90;;;;;;5106094;28;20259;-88
2021/06/15 10:34:06;;;;;;;6.68;5.60;;;29.90;41.90;;;;;;5103692;28;20190;-88
2021/06/15 10:36:44;;;;;;;7.72;6.68;;;29.70;43.10;;;;;;5098819;28;20202;-89
2021/06/15 10:39:37;;;;;;;7.55;6.00;;;29.70;41.90;;;;;;5100958;28;20259;-88
2021/06/15 10:42:15;;;;;;;8.48;6.82;;;29.90;43.60;;;;;;5106197;28;20663;-88
2021/06/15 10:44:42;;;;;;;6.53;5.93;;;29.90;42.20;;;;;;5107133;28;20214;-88
2021/06/15 10:47:11;;;;;;;7.22;6.22;;;30.20;42.00;;;;;;5107936;28;20194;-89
2021/06/15 10:49:59;;;;;;;6.55;5.95;;;30.30;41.60;;;;;;5108955;28;20190;-88
2021/06/15 10:52:26;;;;;;;6.82;6.25;;;30.60;42.50;;;;;;5107859;28;20237;-88
2021/06/15 10:54:52;;;;;;;8.13;6.95;;;30.80;39.90;;;;;;5110784;28;20227;-88
2021/06/15 10:57:30;;;;;;;8.68;6.90;;;30.80;39.30;;;;;;5111128;28;20205;-88
2021/06/15 11:00:03;;;;;;;7.93;6.40;;;30.80;40.70;;;;;;5104468;28;20265;-88
2021/06/15 11:02:32;;;;;;;7.38;6.65;;;31.10;39.80;;;;;;5106035;28;20671;-89
2021/06/15 11:05:36;;;;;;;9.68;6.60;;;31.30;39.60;;;;;;5106186;28;20232;-89
2021/06/15 11:08:27;;;;;;;17.55;7.32;;;31.60;40.60;;;;;;5108032;28;20210;-89
2021/06/15 11:10:58;;;;;;;6.60;6.00;;;31.90;40.60;;;;;;5103438;28;20236;-89
2021/06/15 11:13:48;;;;;;;8.18;6.30;;;32.10;38.60;;;;;;5111038;28;20206;-88
2021/06/15 11:16:27;;;;;;;8.65;6.75;;;32.50;36.90;;;;;;5101399;28;20277;-88
2021/06/15 11:19:11;;;;;;;7.22;6.32;;;32.70;38.70;;;;;;5100587;28;20189;-88
2021/06/15 11:22:07;;;;;;;7.38;6.53;;;32.20;35.90;;;;;;5106167;28;20178;-88
2021/06/15 11:24:41;;;;;;;8.95;6.53;;;32.20;36.30;;;;;;5094914;28;20187;-89
2021/06/15 11:27:18;;;;;;;7.03;6.25;;;31.80;36.00;;;;;;5107176;28;20183;-88
2021/06/15 11:29:46;;;;;;;7.15;6.10;;;31.90;35.60;;;;;;5115805;28;20284;-88
2021/06/15 11:32:17;;;;;;;6.88;6.32;;;32.00;36.10;;;;;;5111705;28;20212;-90
2021/06/15 11:37:29;;;;;;;6.63;5.97;;;32.70;36.80;;;;;;5096791;28;20193;-88
2021/06/15 11:40:22;;;;;;;6.90;6.30;;;32.80;35.00;;;;;;5106738;28;20269;-87
2021/06/15 11:42:55;;;;;;;6.68;6.05;;;33.20;35.20;;;;;;5106552;28;20257;-89
2021/06/15 11:45:35;;;;;;;6.88;5.93;;;33.10;36.30;;;;;;5105440;28;20203;-89
2021/06/15 11:48:26;;;;;;;6.57;5.47;;;33.30;35.30;;;;;;5102098;28;20186;-91
2021/06/15 11:50:55;;;;;;;11.68;6.05;;;33.60;33.80;;;;;;5112138;28;20194;-89
2021/06/15 11:53:22;;;;;;;7.90;5.70;;;33.50;33.60;;;;;;5101458;28;20210;-89
2021/06/15 11:55:58;;;;;;;8.38;5.47;;;33.80;33.20;;;;;;5110617;28;20224;-90
2021/06/15 11:58:25;;;;;;;5.80;5.40;;;33.30;31.80;;;;;;5115684;28;20200;-91
2021/06/15 12:01:03;;;;;;;5.72;5.30;;;33.50;31.50;;;;;;5111055;28;20317;-90
2021/06/15 12:03:37;;;;;;;6.15;5.57;;;33.80;31.00;;;;;;5108579;28;20182;-90
2021/06/15 12:06:03;;;;;;;6.20;5.60;;;34.20;31.00;;;;;;5113173;28;20263;-90
2021/06/15 12:08:35;;;;;;;6.55;5.20;;;34.70;30.60;;;;;;5116637;28;20219;-90
2021/06/15 12:11:01;;;;;;;6.28;5.88;;;34.80;30.10;;;;;;5114665;28;20190;-89
2021/06/15 12:13:32;;;;;;;7.43;6.00;;;34.60;30.50;;;;;;5115365;28;20266;-89
2021/06/15 12:16:12;;;;;;;6.60;6.00;;;34.80;31.10;;;;;;5118583;28;20243;-89
2021/06/15 12:18:55;;;;;;;7.72;7.13;;;34.80;30.90;;;;;;5113894;28;20178;-90
2021/06/15 12:21:24;;;;;;;7.57;6.75;;;34.90;32.80;;;;;;5109989;28;20269;-90
2021/06/15 12:23:55;;;;;;;7.00;6.40;;;35.30;31.20;;;;;;5113483;28;20278;-90
2021/06/15 12:26:35;;;;;;;9.95;7.07;;;35.40;31.30;;;;;;5110135;28;20287;-92
2021/06/15 12:29:04;;;;;;;6.47;5.97;;;35.10;31.10;;;;;;5103829;28;20685;-90
2021/06/15 12:31:32;;;;;;;17.48;7.28;;;35.40;30.40;;;;;;5111694;27;20795;-90
2021/06/15 12:34:00;;;;;;;7.50;6.80;;;35.40;30.90;;;;;;5113180;28;20186;-91
2021/06/15 12:36:30;;;;;;;7.40;6.28;;;35.60;30.00;;;;;;5113512;28;20206;-90
2021/06/15 12:39:14;;;;;;;6.90;6.45;;;35.70;30.20;;;;;;5099574;28;20190;-89
2021/06/15 12:41:51;;;;;;;7.68;6.30;;;35.50;29.20;;;;;;5108115;28;20229;-90
2021/06/15 12:44:18;;;;;;;6.90;6.20;;;35.70;28.60;;;;;;5110727;28;20184;-91
2021/06/15 12:46:45;;;;;;;6.70;6.07;;;35.70;29.00;;;;;;5109137;28;20205;-89
2021/06/15 12:49:22;;;;;;;6.60;6.00;;;36.00;28.90;;;;;;5114793;28;20213;-90
2021/06/15 12:51:58;;;;;;;6.68;6.07;;;36.10;29.10;;;;;;5106419;28;20215;-90
2021/06/15 12:54:29;;;;;;;5.88;5.50;;;36.20;28.70;;;;;;5108464;28;20174;-89
2021/06/15 12:57:02;;;;;;;6.45;5.80;;;35.70;28.80;;;;;;5110754;28;20228;-90
2021/06/15 12:59:28;;;;;;;6.45;5.85;;;35.90;28.50;;;;;;5119650;28;20181;-91
2021/06/15 13:01:54;;;;;;;6.68;6.18;;;36.10;28.60;;;;;;5118152;28;20186;-91
2021/06/15 13:04:25;;;;;;;8.30;5.93;;;36.20;28.70;;;;;;5122932;28;20177;-90
2021/06/15 13:06:53;;;;;;;6.88;6.28;;;36.50;28.60;;;;;;5082853;28;20202;-90
2021/06/15 13:09:30;;;;;;;6.90;6.13;;;36.40;27.90;;;;;;5113040;28;20189;-90
2021/06/15 13:12:10;;;;;;;7.25;6.43;;;36.80;28.30;;;;;;5110465;28;20280;-90
2021/06/15 13:14:39;;;;;;;6.90;6.30;;;36.60;27.80;;;;;;5100766;28;20183;-90